Time;durP1;ratioP1;P1;durP2;ratioP2;P2;SDS_P1;SDS_P2;PMS_P1;PMS_P2;Temp;Humidity;BMP_temperature;BMP_pressure;BME280_temperature;BME280_humidity;BME280_pressure;Samples;Min_cycle;Max_cycle;Signal;HPM_P1;HPM_P2
2021/04/09 00:00:43;;;;;;;5.82;2.08;;;4.40;49.10;;;;;;5079686;28;20070;-74
2021/04/09 00:03:09;;;;;;;3.17;2.28;;;4.40;49.40;;;;;;5079687;28;20029;-74
2021/04/09 00:05:35;;;;;;;4.25;2.30;;;4.40;49.70;;;;;;5079524;28;20020;-74
2021/04/09 00:08:01;;;;;;;4.40;2.00;;;4.40;50.30;;;;;;5079884;28;20059;-74
2021/04/09 00:10:29;;;;;;;3.75;2.05;;;4.40;52.00;;;;;;5079549;28;20016;-71
2021/04/09 00:12:56;;;;;;;3.92;1.88;;;4.30;52.40;;;;;;5079498;28;20032;-71
2021/04/09 00:15:22;;;;;;;4.07;1.83;;;4.30;52.20;;;;;;5079595;28;20037;-72
2021/04/09 00:17:48;;;;;;;2.92;2.13;;;4.30;52.70;;;;;;5079314;28;20443;-71
2021/04/09 00:20:19;;;;;;;2.28;1.77;;;4.30;53.40;;;;;;5079356;28;20099;-71
2021/04/09 00:22:46;;;;;;;3.28;1.88;;;4.30;51.70;;;;;;5079835;28;20033;-71
2021/04/09 00:25:12;;;;;;;2.85;2.35;;;4.40;51.90;;;;;;5079170;28;20027;-71
2021/04/09 00:27:38;;;;;;;4.68;2.22;;;4.50;53.60;;;;;;5079095;28;20032;-71
2021/04/09 00:30:06;;;;;;;2.72;2.00;;;4.40;52.90;;;;;;5079414;28;20032;-72
2021/04/09 00:32:32;;;;;;;3.25;2.03;;;4.40;52.10;;;;;;5079090;28;20024;-71
2021/04/09 00:34:57;;;;;;;2.33;1.80;;;4.40;53.50;;;;;;5079112;28;20037;-71
2021/04/09 00:37:23;;;;;;;3.95;1.58;;;4.40;53.30;;;;;;5078939;28;20031;-71
2021/04/09 00:39:48;;;;;;;2.25;1.83;;;4.40;54.30;;;;;;5078999;28;20024;-71
2021/04/09 00:42:19;;;;;;;2.35;1.80;;;4.40;55.60;;;;;;5061164;28;20027;-71
2021/04/09 00:44:46;;;;;;;3.33;1.67;;;4.30;55.70;;;;;;5078868;28;20413;-71
2021/04/09 00:47:12;;;;;;;3.25;1.98;;;4.30;56.60;;;;;;5078272;28;20032;-71
2021/04/09 00:49:39;;;;;;;3.45;1.60;;;4.20;58.60;;;;;;5078296;28;20041;-72
2021/04/09 00:52:05;;;;;;;3.17;1.60;;;4.20;59.50;;;;;;5078826;28;20047;-71
2021/04/09 00:54:31;;;;;;;3.60;1.90;;;4.20;60.50;;;;;;5078753;28;20328;-71
2021/04/09 00:56:58;;;;;;;3.78;1.80;;;4.20;61.00;;;;;;5078596;28;20126;-71
2021/04/09 00:59:25;;;;;;;5.03;2.15;;;4.20;61.50;;;;;;5078813;28;20021;-73
2021/04/09 01:01:51;;;;;;;4.65;2.08;;;4.20;61.00;;;;;;5078500;28;20031;-73
2021/04/09 01:04:17;;;;;;;3.00;1.88;;;4.10;60.90;;;;;;5078468;28;20021;-74
2021/04/09 01:06:42;;;;;;;2.50;2.10;;;4.00;60.90;;;;;;5078738;28;20033;-74
2021/04/09 01:09:08;;;;;;;3.83;1.77;;;3.90;61.00;;;;;;5078393;28;20417;-74
2021/04/09 01:11:34;;;;;;;4.38;2.40;;;3.80;61.00;;;;;;5078351;28;20029;-74
2021/04/09 01:14:00;;;;;;;4.20;2.00;;;3.80;60.70;;;;;;5078467;28;20144;-74
2021/04/09 01:16:38;;;;;;;4.07;2.08;;;3.70;60.60;;;;;;5078465;28;20056;-73
2021/04/09 01:19:23;;;;;;;4.70;2.03;;;3.70;60.70;;;;;;5078296;28;20020;-74
2021/04/09 01:21:57;;;;;;;3.53;2.17;;;3.70;61.10;;;;;;5078294;28;20024;-74
2021/04/09 01:24:32;;;;;;;2.85;2.00;;;3.70;60.30;;;;;;5078225;28;20115;-74
2021/04/09 01:27:21;;;;;;;3.55;1.95;;;3.60;60.50;;;;;;5078281;28;20028;-72
2021/04/09 01:30:15;;;;;;;2.53;2.00;;;3.70;59.90;;;;;;5078270;28;20126;-74
2021/04/09 01:32:40;;;;;;;2.22;1.55;;;3.70;60.70;;;;;;5078406;28;20316;-74
2021/04/09 01:35:10;;;;;;;4.38;2.13;;;3.70;61.80;;;;;;5077807;28;20028;-71
2021/04/09 01:37:42;;;;;;;4.30;1.65;;;3.70;62.70;;;;;;5077816;28;20054;-73
2021/04/09 01:40:17;;;;;;;3.55;1.65;;;3.70;63.20;;;;;;5078080;28;20427;-74
2021/04/09 01:42:46;;;;;;;5.55;1.40;;;3.70;63.00;;;;;;5078219;28;20012;-71
2021/04/09 01:45:13;;;;;;;3.10;1.75;;;3.80;63.90;;;;;;5077631;28;20024;-71
2021/04/09 01:47:42;;;;;;;2.83;2.30;;;3.70;62.60;;;;;;5077645;28;20112;-71
2021/04/09 01:50:13;;;;;;;3.10;1.90;;;3.70;61.50;;;;;;5077475;28;20347;-74
2021/04/09 01:52:40;;;;;;;2.28;1.77;;;3.70;61.80;;;;;;5077911;28;20111;-74
2021/04/09 01:55:08;;;;;;;4.30;2.30;;;3.70;61.70;;;;;;5077516;28;20083;-73
2021/04/09 01:57:35;;;;;;;6.85;1.98;;;3.70;62.00;;;;;;5059684;28;20027;-71
2021/04/09 02:00:03;;;;;;;6.20;2.03;;;3.60;61.90;;;;;;5077428;28;20028;-73
2021/04/09 02:02:29;;;;;;;3.10;1.98;;;3.70;62.30;;;;;;5077262;28;20028;-74
2021/04/09 02:04:56;;;;;;;3.30;2.00;;;3.60;62.90;;;;;;5077451;28;20098;-74
2021/04/09 02:07:23;;;;;;;3.92;1.50;;;3.60;63.30;;;;;;5077509;28;20029;-72
2021/04/09 02:09:50;;;;;;;2.17;1.50;;;3.60;64.10;;;;;;5077453;28;20059;-73
2021/04/09 02:12:18;;;;;;;3.67;1.70;;;3.60;64.70;;;;;;5077429;28;20025;-74
2021/04/09 02:14:45;;;;;;;6.20;1.42;;;3.60;65.20;;;;;;5077065;28;20332;-74
2021/04/09 02:17:12;;;;;;;6.57;1.88;;;3.60;66.10;;;;;;5077038;28;20037;-74
2021/04/09 02:19:40;;;;;;;1.63;1.15;;;3.60;66.70;;;;;;5077099;28;20095;-74
2021/04/09 02:22:07;;;;;;;3.58;1.27;;;3.70;67.20;;;;;;5076914;28;20409;-74
2021/04/09 02:24:32;;;;;;;3.10;1.48;;;3.70;67.20;;;;;;5077168;28;20421;-74
2021/04/09 02:26:58;;;;;;;4.30;1.60;;;3.70;67.20;;;;;;5059240;28;20052;-74
2021/04/09 02:29:25;;;;;;;3.35;2.20;;;3.70;66.90;;;;;;5076940;28;20029;-74
2021/04/09 02:31:52;;;;;;;13.65;3.40;;;3.70;66.10;;;;;;5059133;28;20028;-74
2021/04/09 02:34:19;;;;;;;4.25;1.85;;;3.70;65.80;;;;;;5059129;28;20028;-74
2021/04/09 02:36:45;;;;;;;3.72;1.60;;;3.60;65.80;;;;;;5077041;28;20036;-74
2021/04/09 02:39:14;;;;;;;4.53;1.67;;;3.60;65.80;;;;;;5077119;28;20047;-74
2021/04/09 02:41:46;;;;;;;3.88;1.52;;;3.60;66.30;;;;;;5076767;28;20028;-74
2021/04/09 02:44:12;;;;;;;3.50;1.42;;;3.60;66.80;;;;;;5076736;28;20025;-74
2021/04/09 02:46:56;;;;;;;2.10;1.27;;;3.60;67.20;;;;;;5076722;28;20028;-74
2021/04/09 02:49:27;;;;;;;3.45;1.10;;;3.60;67.30;;;;;;5076535;28;20032;-74
2021/04/09 02:51:55;;;;;;;3.80;1.60;;;3.60;67.10;;;;;;5076798;28;20020;-74
2021/04/09 02:54:23;;;;;;;7.07;1.63;;;3.60;67.10;;;;;;5058812;28;20332;-74
2021/04/09 02:56:50;;;;;;;5.35;1.65;;;3.60;67.30;;;;;;5076526;28;20162;-73
2021/04/09 02:59:16;;;;;;;2.38;1.42;;;3.60;67.70;;;;;;5076645;28;20032;-74
2021/04/09 03:01:44;;;;;;;7.05;1.50;;;3.50;67.50;;;;;;5058802;28;20111;-74
2021/04/09 03:04:11;;;;;;;2.72;1.58;;;3.60;67.40;;;;;;5076539;28;20036;-74
2021/04/09 03:06:38;;;;;;;3.80;1.60;;;3.60;66.90;;;;;;5076562;28;20302;-74
2021/04/09 03:09:08;;;;;;;3.70;1.40;;;3.60;66.30;;;;;;5058758;28;20031;-74
2021/04/09 03:11:34;;;;;;;2.03;1.50;;;3.60;66.50;;;;;;5078344;28;20417;-74
2021/04/09 03:14:01;;;;;;;3.05;1.50;;;3.60;67.00;;;;;;5080460;28;20086;-74
2021/04/09 03:16:34;;;;;;;4.88;1.90;;;3.60;67.00;;;;;;5080547;28;20029;-74
2021/04/09 03:18:59;;;;;;;3.40;1.65;;;3.60;66.70;;;;;;5080637;28;20025;-74
2021/04/09 03:21:25;;;;;;;3.53;1.38;;;3.60;67.20;;;;;;5080576;28;20019;-74
2021/04/09 03:23:51;;;;;;;5.15;1.65;;;3.60;67.70;;;;;;5080819;28;20354;-74
2021/04/09 03:26:16;;;;;;;4.57;1.38;;;3.60;68.30;;;;;;5080650;28;20036;-74
2021/04/09 03:28:42;;;;;;;4.47;1.48;;;3.60;68.80;;;;;;5080617;28;20104;-74
2021/04/09 03:31:07;;;;;;;4.30;1.13;;;3.50;69.40;;;;;;5080238;28;20028;-74
2021/04/09 03:33:33;;;;;;;4.53;1.33;;;3.60;69.60;;;;;;5080419;28;20037;-74
2021/04/09 03:35:59;;;;;;;5.28;1.30;;;3.50;70.10;;;;;;5062410;28;20024;-74
2021/04/09 03:38:24;;;;;;;4.15;1.60;;;3.50;70.50;;;;;;5080139;28;20032;-74
2021/04/09 03:40:50;;;;;;;2.85;1.40;;;3.50;70.70;;;;;;5080405;28;20024;-74
2021/04/09 03:43:16;;;;;;;3.42;1.60;;;3.60;70.60;;;;;;5080232;28;20032;-74
2021/04/09 03:45:42;;;;;;;3.75;1.30;;;3.60;70.40;;;;;;5062263;28;20017;-74
2021/04/09 03:48:08;;;;;;;6.90;1.60;;;3.60;70.30;;;;;;5080179;28;20035;-74
2021/04/09 03:50:34;;;;;;;3.58;1.40;;;3.60;70.10;;;;;;5079814;28;20048;-74
2021/04/09 03:53:00;;;;;;;3.38;1.40;;;3.60;70.40;;;;;;5080238;28;20434;-74
2021/04/09 03:55:26;;;;;;;3.65;1.50;;;3.60;70.00;;;;;;5062050;28;20035;-74
2021/04/09 03:57:51;;;;;;;2.90;1.02;;;3.50;70.40;;;;;;5079744;28;20321;-74
2021/04/09 04:00:18;;;;;;;5.75;1.15;;;3.50;70.60;;;;;;5080187;28;20070;-74
2021/04/09 04:02:43;;;;;;;4.28;1.20;;;3.50;71.00;;;;;;5079576;28;20047;-74
2021/04/09 04:05:10;;;;;;;7.88;1.13;;;3.50;71.60;;;;;;5079576;28;20408;-74
2021/04/09 04:07:36;;;;;;;1.83;0.85;;;3.50;71.80;;;;;;5079831;28;20032;-74
2021/04/09 04:10:03;;;;;;;3.95;1.33;;;3.50;72.10;;;;;;5079637;28;20028;-74
2021/04/09 04:12:29;;;;;;;3.20;1.35;;;3.40;71.80;;;;;;5079418;28;20298;-74
2021/04/09 04:14:55;;;;;;;3.03;1.77;;;3.40;71.20;;;;;;5079370;28;20115;-74
2021/04/09 04:17:20;;;;;;;3.22;1.55;;;3.40;70.20;;;;;;5079332;28;20036;-74
2021/04/09 04:19:46;;;;;;;1.77;1.40;;;3.40;69.10;;;;;;5079420;28;20413;-74
2021/04/09 04:22:12;;;;;;;3.40;1.48;;;3.30;67.70;;;;;;5079208;28;20028;-74
2021/04/09 04:24:37;;;;;;;5.72;1.63;;;3.40;67.10;;;;;;5061466;28;20032;-74
2021/04/09 04:27:03;;;;;;;4.38;1.60;;;3.40;67.30;;;;;;5061544;28;20123;-74
2021/04/09 04:29:29;;;;;;;3.83;1.75;;;3.40;67.60;;;;;;5079170;28;20039;-74
2021/04/09 04:31:54;;;;;;;2.90;1.50;;;3.50;67.50;;;;;;5079168;28;20082;-74
2021/04/09 04:34:20;;;;;;;1.92;1.13;;;3.50;67.80;;;;;;5079116;28;20033;-74
2021/04/09 04:36:46;;;;;;;5.03;1.45;;;3.50;68.70;;;;;;5061266;28;20074;-74
2021/04/09 04:39:11;;;;;;;3.05;1.60;;;3.50;69.50;;;;;;5078961;28;20017;-74
2021/04/09 04:41:38;;;;;;;3.40;1.38;;;3.50;69.80;;;;;;5079279;28;20029;-74
2021/04/09 04:44:04;;;;;;;2.72;1.40;;;3.50;68.50;;;;;;5078874;28;20013;-74
2021/04/09 04:46:30;;;;;;;3.47;1.40;;;3.50;68.10;;;;;;5078820;28;20102;-74
2021/04/09 04:48:55;;;;;;;3.15;1.20;;;3.50;67.80;;;;;;5061119;28;20031;-74
2021/04/09 04:51:21;;;;;;;3.60;1.65;;;3.60;67.70;;;;;;5078630;28;20052;-74
2021/04/09 04:53:47;;;;;;;4.18;1.40;;;3.70;67.80;;;;;;5079124;28;20341;-74
2021/04/09 04:56:13;;;;;;;5.00;1.88;;;3.80;68.30;;;;;;5060944;28;20428;-74
2021/04/09 04:58:38;;;;;;;7.35;1.35;;;3.90;67.30;;;;;;5078711;28;20029;-74
2021/04/09 05:01:04;;;;;;;3.63;1.45;;;4.20;66.40;;;;;;5078892;28;20032;-74
2021/04/09 05:03:29;;;;;;;8.00;1.75;;;4.30;65.90;;;;;;5078759;28;20029;-74
2021/04/09 05:05:55;;;;;;;5.68;1.40;;;4.40;66.30;;;;;;5060782;28;20020;-74
2021/04/09 05:08:21;;;;;;;3.20;1.15;;;4.50;65.70;;;;;;5060816;28;20298;-74
2021/04/09 05:10:46;;;;;;;3.90;1.30;;;4.60;66.50;;;;;;5060693;28;20020;-74
2021/04/09 05:13:12;;;;;;;2.50;1.08;;;4.60;64.90;;;;;;5078586;28;20066;-74
2021/04/09 05:15:38;;;;;;;8.88;3.70;;;4.70;65.70;;;;;;5078282;28;20294;-74
2021/04/09 05:18:04;;;;;;;5.70;2.65;;;4.70;66.00;;;;;;5060484;28;20025;-74
2021/04/09 05:20:29;;;;;;;4.57;2.10;;;4.70;66.50;;;;;;5060592;28;20035;-73
2021/04/09 05:22:55;;;;;;;3.45;1.50;;;4.70;65.20;;;;;;5078558;28;20309;-74
2021/04/09 05:25:21;;;;;;;4.35;1.80;;;4.80;62.70;;;;;;5078331;28;20435;-74
2021/04/09 05:27:47;;;;;;;6.82;1.52;;;4.90;60.30;;;;;;5078085;28;20032;-74
2021/04/09 05:30:13;;;;;;;2.25;1.45;;;5.00;60.20;;;;;;5060308;28;20028;-74
2021/04/09 05:32:39;;;;;;;4.18;1.75;;;5.10;60.30;;;;;;5060531;28;20332;-74
2021/04/09 05:35:05;;;;;;;3.85;1.38;;;5.20;60.30;;;;;;5077314;28;20023;-74
2021/04/09 05:37:30;;;;;;;3.15;1.45;;;5.30;59.20;;;;;;5078050;28;20063;-73
2021/04/09 05:39:56;;;;;;;3.00;1.40;;;5.30;59.00;;;;;;5078122;28;20482;-74
2021/04/09 05:42:22;;;;;;;5.32;2.28;;;5.40;58.00;;;;;;5077776;28;20029;-74
2021/04/09 05:44:48;;;;;;;4.57;2.80;;;5.40;58.80;;;;;;5059880;28;20321;-74
2021/04/09 05:47:13;;;;;;;4.85;2.67;;;5.40;58.50;;;;;;5077685;28;20035;-74
2021/04/09 05:49:39;;;;;;;3.15;2.13;;;5.50;58.70;;;;;;5077415;28;20040;-74
2021/04/09 05:52:06;;;;;;;5.80;2.30;;;5.50;56.70;;;;;;5077645;28;20068;-74
2021/04/09 05:54:32;;;;;;;2.97;2.20;;;5.60;56.00;;;;;;5077708;28;20033;-74
2021/04/09 05:57:01;;;;;;;4.00;2.03;;;5.60;56.50;;;;;;5077450;28;20021;-74
2021/04/09 05:59:27;;;;;;;4.20;2.22;;;5.70;55.80;;;;;;5077789;28;20024;-74
2021/04/09 06:01:53;;;;;;;3.47;2.03;;;5.70;55.30;;;;;;5059655;28;20025;-74
2021/04/09 06:04:19;;;;;;;2.80;1.92;;;5.80;54.90;;;;;;5077300;28;20202;-74
2021/04/09 06:06:44;;;;;;;7.40;2.00;;;5.90;55.40;;;;;;5077268;28;20467;-74
2021/04/09 06:09:10;;;;;;;4.60;2.20;;;6.00;55.00;;;;;;5077307;28;20103;-74
2021/04/09 06:11:36;;;;;;;2.90;1.98;;;6.00;55.30;;;;;;5077404;28;20082;-74
2021/04/09 06:14:01;;;;;;;6.03;2.05;;;6.10;54.60;;;;;;5077120;28;20016;-74
2021/04/09 06:16:27;;;;;;;4.00;1.95;;;6.20;54.80;;;;;;5077086;28;20326;-73
2021/04/09 06:18:53;;;;;;;3.80;2.15;;;6.20;55.80;;;;;;5077098;28;20095;-74
2021/04/09 06:21:19;;;;;;;3.67;2.10;;;6.30;55.60;;;;;;5077095;28;20404;-73
2021/04/09 06:23:45;;;;;;;3.97;2.10;;;6.40;55.30;;;;;;5077444;28;20020;-74
2021/04/09 06:26:11;;;;;;;4.30;2.28;;;6.50;54.70;;;;;;5077048;28;20107;-74
2021/04/09 06:28:36;;;;;;;5.10;1.95;;;6.60;54.60;;;;;;5077279;28;20024;-73
2021/04/09 06:31:02;;;;;;;4.22;2.45;;;6.70;54.30;;;;;;5059214;28;20032;-74
2021/04/09 06:33:28;;;;;;;4.10;2.05;;;6.80;53.70;;;;;;5076862;28;20116;-73
2021/04/09 06:35:53;;;;;;;2.85;1.83;;;6.80;54.30;;;;;;5076800;28;20028;-74
2021/04/09 06:38:19;;;;;;;6.38;2.58;;;6.90;54.10;;;;;;5059237;28;20048;-74
2021/04/09 06:40:45;;;;;;;3.47;2.30;;;7.00;54.10;;;;;;5077049;28;20100;-73
2021/04/09 06:43:12;;;;;;;5.20;2.00;;;7.20;54.10;;;;;;5058991;28;20116;-73
2021/04/09 06:45:39;;;;;;;4.63;1.90;;;7.30;54.00;;;;;;5075764;28;20074;-74
2021/04/09 06:48:06;;;;;;;5.05;2.28;;;7.60;53.00;;;;;;5076998;28;20090;-74
2021/04/09 06:50:32;;;;;;;5.38;2.40;;;7.70;52.30;;;;;;5076646;28;20060;-71
2021/04/09 06:52:58;;;;;;;3.92;2.58;;;7.70;53.30;;;;;;5076947;28;20032;-74
2021/04/09 06:55:24;;;;;;;4.53;2.25;;;7.80;53.20;;;;;;5076590;28;20043;-74
2021/04/09 06:57:52;;;;;;;3.20;2.40;;;7.70;54.30;;;;;;5076576;28;20412;-74
2021/04/09 07:00:21;;;;;;;4.28;2.00;;;7.70;53.50;;;;;;5076681;28;20013;-73
2021/04/09 07:02:47;;;;;;;3.13;1.90;;;7.70;54.60;;;;;;5058880;28;20032;-74
2021/04/09 07:05:13;;;;;;;3.83;2.38;;;7.80;54.10;;;;;;5076575;28;20311;-74
2021/04/09 07:07:39;;;;;;;3.40;2.25;;;7.70;54.80;;;;;;5058806;28;20127;-74
2021/04/09 07:10:06;;;;;;;5.57;2.25;;;7.80;54.00;;;;;;5076848;28;20052;-74
2021/04/09 07:12:33;;;;;;;5.00;2.97;;;7.70;53.80;;;;;;5076559;28;20031;-74
2021/04/09 07:15:03;;;;;;;4.05;2.50;;;7.80;53.40;;;;;;5076478;28;20035;-73
2021/04/09 07:17:48;;;;;;;6.22;2.13;;;8.00;53.60;;;;;;5076432;28;20163;-73
2021/04/09 07:20:17;;;;;;;2.50;2.25;;;8.30;54.10;;;;;;5058739;28;20017;-74
2021/04/09 07:22:49;;;;;;;4.45;2.75;;;9.10;52.90;;;;;;5076740;28;20115;-74
2021/04/09 07:25:20;;;;;;;4.07;2.15;;;9.80;51.10;;;;;;5076602;28;20025;-71
2021/04/09 07:27:48;;;;;;;7.15;1.90;;;10.20;48.70;;;;;;5076393;28;20052;-71
2021/04/09 07:30:25;;;;;;;2.72;1.58;;;10.60;49.00;;;;;;5076754;28;20036;-71
2021/04/09 07:32:51;;;;;;;3.97;1.50;;;11.10;49.00;;;;;;5076624;28;20036;-71
2021/04/09 07:35:18;;;;;;;2.85;1.42;;;11.90;46.50;;;;;;5076239;28;20051;-74
2021/04/09 07:37:57;;;;;;;4.63;1.30;;;12.60;45.70;;;;;;5076179;28;20029;-72
2021/04/09 07:40:32;;;;;;;3.58;1.23;;;13.20;44.30;;;;;;5076287;28;20013;-71
2021/04/09 07:42:59;;;;;;;3.50;2.03;;;13.80;43.20;;;;;;5076496;28;20297;-71
2021/04/09 07:45:27;;;;;;;2.47;1.50;;;14.30;42.70;;;;;;5076148;28;20021;-72
2021/04/09 07:48:04;;;;;;;2.72;1.63;;;14.70;41.40;;;;;;5076156;28;20040;-72
2021/04/09 07:50:38;;;;;;;2.30;1.55;;;14.80;42.30;;;;;;5076009;28;20079;-71
2021/04/09 07:53:05;;;;;;;4.95;1.63;;;15.10;41.70;;;;;;5076487;28;20111;-74
2021/04/09 07:55:32;;;;;;;3.00;1.60;;;15.10;41.60;;;;;;5076270;28;20363;-71
2021/04/09 07:58:18;;;;;;;4.43;1.80;;;15.30;41.50;;;;;;5060448;28;20025;-72
2021/04/09 08:00:45;;;;;;;4.05;1.73;;;15.60;41.80;;;;;;5079214;28;20029;-72
2021/04/09 08:03:28;;;;;;;4.68;1.10;;;15.70;40.10;;;;;;5079705;28;20039;-73
2021/04/09 08:06:26;;;;;;;2.38;1.20;;;15.60;41.30;;;;;;5061952;28;20096;-73
2021/04/09 08:08:56;;;;;;;5.85;1.48;;;15.40;40.40;;;;;;5079023;28;20098;-72
2021/04/09 08:11:34;;;;;;;3.70;1.73;;;15.40;39.60;;;;;;5079621;28;20017;-74
2021/04/09 08:14:09;;;;;;;3.47;1.75;;;15.70;39.40;;;;;;5079491;28;20108;-72
2021/04/09 08:16:44;;;;;;;2.97;1.70;;;15.80;39.20;;;;;;5079521;28;20017;-72
2021/04/09 08:19:12;;;;;;;4.85;1.60;;;15.80;40.20;;;;;;5061698;28;20416;-72
2021/04/09 08:21:47;;;;;;;3.05;2.00;;;15.90;40.40;;;;;;5079257;28;20052;-72
2021/04/09 08:24:14;;;;;;;3.13;1.27;;;15.90;40.40;;;;;;5079243;28;20320;-72
2021/04/09 08:26:40;;;;;;;6.72;1.77;;;16.10;41.60;;;;;;5079340;28;20025;-72
2021/04/09 08:29:08;;;;;;;4.90;1.67;;;16.20;41.80;;;;;;5079688;28;20024;-72
2021/04/09 08:31:34;;;;;;;3.42;2.17;;;16.40;41.90;;;;;;5079192;28;20036;-73
2021/04/09 08:34:00;;;;;;;3.72;1.42;;;16.30;41.00;;;;;;5061586;28;20484;-72
2021/04/09 08:36:27;;;;;;;4.10;1.90;;;16.20;42.60;;;;;;5078964;28;20028;-72
2021/04/09 08:38:54;;;;;;;4.57;1.60;;;16.30;43.70;;;;;;5061294;28;20417;-72
2021/04/09 08:41:20;;;;;;;5.13;3.05;;;16.40;42.90;;;;;;5061257;28;20025;-72
2021/04/09 08:43:46;;;;;;;4.88;2.90;;;16.60;42.70;;;;;;5078994;28;20020;-73
2021/04/09 08:46:12;;;;;;;6.10;2.80;;;16.90;41.70;;;;;;5079008;28;20031;-72
2021/04/09 08:48:39;;;;;;;7.95;2.58;;;17.00;40.30;;;;;;5061318;28;20036;-72
2021/04/09 08:51:06;;;;;;;7.55;3.15;;;17.10;42.10;;;;;;5060855;28;20074;-72
2021/04/09 08:53:33;;;;;;;7.20;2.85;;;17.00;41.70;;;;;;5079096;28;20032;-72
2021/04/09 08:55:59;;;;;;;6.85;3.10;;;17.20;40.40;;;;;;5078684;28;20033;-72
2021/04/09 08:58:25;;;;;;;6.68;2.92;;;17.30;40.90;;;;;;5078703;28;20048;-72
2021/04/09 09:00:52;;;;;;;9.65;3.10;;;17.30;40.70;;;;;;5078643;28;20106;-72
2021/04/09 09:03:29;;;;;;;5.65;2.70;;;17.20;42.50;;;;;;5060827;28;20025;-72
2021/04/09 09:06:00;;;;;;;8.05;3.03;;;17.40;43.90;;;;;;5078859;28;20412;-72
2021/04/09 09:08:41;;;;;;;7.72;3.33;;;17.40;40.90;;;;;;5077789;28;20090;-72
2021/04/09 09:11:08;;;;;;;5.63;3.35;;;17.60;42.10;;;;;;5078465;28;20043;-72
2021/04/09 09:13:54;;;;;;;5.65;3.10;;;17.30;40.40;;;;;;5078363;28;20325;-72
2021/04/09 09:16:20;;;;;;;5.32;3.17;;;17.50;41.10;;;;;;5078283;28;20056;-72
2021/04/09 09:18:48;;;;;;;7.35;3.80;;;17.50;41.90;;;;;;5060601;28;20020;-72
2021/04/09 09:21:14;;;;;;;7.82;3.65;;;17.60;41.90;;;;;;5078252;28;20021;-72
2021/04/09 09:23:58;;;;;;;6.40;3.30;;;17.90;42.40;;;;;;5078626;28;20025;-72
2021/04/09 09:26:35;;;;;;;5.55;2.97;;;17.90;43.00;;;;;;5078210;28;20085;-72
2021/04/09 09:29:18;;;;;;;4.18;3.20;;;18.00;40.40;;;;;;5060371;28;20040;-72
2021/04/09 09:32:00;;;;;;;9.18;3.10;;;17.70;41.60;;;;;;5078117;28;20032;-74
2021/04/09 09:34:30;;;;;;;8.15;3.60;;;17.70;41.40;;;;;;5078136;28;20024;-71
2021/04/09 09:37:15;;;;;;;7.53;3.63;;;17.80;43.90;;;;;;5077935;28;20097;-71
2021/04/09 09:39:50;;;;;;;9.23;3.53;;;17.80;41.10;;;;;;5078021;28;20407;-71
2021/04/09 09:42:25;;;;;;;;;;;17.70;42.20;;;;;;5078527;28;20024;-71
2021/04/09 09:45:01;;;;;;;6.68;3.20;;;17.50;42.80;;;;;;5060266;28;20212;-71
2021/04/09 09:47:33;;;;;;;4.43;3.47;;;17.60;42.60;;;;;;5077981;28;20029;-71
2021/04/09 09:50:06;;;;;;;7.50;3.38;;;17.30;41.60;;;;;;5056464;28;20048;-74
2021/04/09 09:52:41;;;;;;;4.35;3.25;;;16.90;41.40;;;;;;5057808;28;20025;-71
2021/04/09 09:55:20;;;;;;;7.05;2.85;;;17.40;44.60;;;;;;5057597;28;20033;-71
2021/04/09 09:57:46;;;;;;;5.45;3.55;;;17.60;41.90;;;;;;5057689;28;20029;-71
2021/04/09 10:00:14;;;;;;;6.63;3.40;;;17.80;41.60;;;;;;5057607;28;20021;-71
2021/04/09 10:02:41;;;;;;;13.57;3.47;;;17.90;40.10;;;;;;5057760;28;20020;-71
2021/04/09 10:05:08;;;;;;;3.83;2.92;;;18.20;42.30;;;;;;5057349;28;20096;-71
2021/04/09 10:07:34;;;;;;;6.80;3.53;;;18.20;41.30;;;;;;5057269;28;20025;-72
2021/04/09 10:10:00;;;;;;;4.40;2.80;;;18.00;40.30;;;;;;5057535;28;20075;-71
2021/04/09 10:12:26;;;;;;;7.03;3.45;;;18.20;41.00;;;;;;5056840;28;20028;-71
2021/04/09 10:14:53;;;;;;;8.23;3.55;;;18.20;41.80;;;;;;5061329;28;20039;-71
2021/04/09 10:17:18;;;;;;;7.03;3.20;;;18.10;41.20;;;;;;5071772;28;20029;-72
2021/04/09 10:20:05;;;;;;;6.63;3.30;;;18.00;40.60;;;;;;5076946;28;20401;-72
2021/04/09 10:22:31;;;;;;;6.05;3.13;;;18.30;41.50;;;;;;5077255;28;20028;-71
2021/04/09 10:24:57;;;;;;;7.45;3.03;;;18.30;42.70;;;;;;5076993;28;20081;-71
2021/04/09 10:27:23;;;;;;;8.30;3.20;;;18.30;38.90;;;;;;5075934;28;20028;-72
2021/04/09 10:29:49;;;;;;;5.30;3.03;;;18.60;40.80;;;;;;5076999;28;20036;-71
2021/04/09 10:32:20;;;;;;;6.18;3.10;;;18.50;40.70;;;;;;5077487;28;20028;-72
2021/04/09 10:34:51;;;;;;;5.93;3.20;;;18.30;41.00;;;;;;5076781;28;20036;-72
2021/04/09 10:37:22;;;;;;;4.10;3.00;;;18.50;39.80;;;;;;5075868;28;20033;-72
2021/04/09 10:39:48;;;;;;;6.10;3.00;;;18.40;41.50;;;;;;5077030;28;20016;-72
2021/04/09 10:42:14;;;;;;;5.55;2.80;;;18.20;41.50;;;;;;5076838;28;20099;-72
2021/04/09 10:44:39;;;;;;;6.47;2.88;;;18.40;39.20;;;;;;5076761;28;20490;-72
2021/04/09 10:47:07;;;;;;;7.25;3.47;;;18.50;40.80;;;;;;5077006;28;20029;-72
2021/04/09 10:49:35;;;;;;;7.63;3.45;;;18.50;41.10;;;;;;5079829;28;20098;-72
2021/04/09 10:52:13;;;;;;;5.35;3.40;;;18.40;39.50;;;;;;5096813;28;20082;-72
2021/04/09 10:54:42;;;;;;;4.65;2.97;;;18.40;39.30;;;;;;5097107;28;20382;-72
2021/04/09 10:57:09;;;;;;;5.35;2.92;;;18.50;42.20;;;;;;5096872;28;20101;-72
2021/04/09 10:59:36;;;;;;;4.40;3.50;;;18.40;40.50;;;;;;5097191;28;20024;-72
2021/04/09 11:02:05;;;;;;;4.53;3.03;;;18.40;38.40;;;;;;5096862;28;20074;-72
2021/04/09 11:04:33;;;;;;;6.47;3.28;;;18.20;41.00;;;;;;5096729;28;20024;-72
2021/04/09 11:07:01;;;;;;;4.55;3.00;;;17.90;41.80;;;;;;5096818;28;20408;-72
2021/04/09 11:09:50;;;;;;;7.75;2.53;;;17.80;42.00;;;;;;5078881;28;20032;-72
2021/04/09 11:12:21;;;;;;;5.13;2.58;;;17.70;42.90;;;;;;5096764;28;20074;-72
2021/04/09 11:14:50;;;;;;;4.68;2.85;;;18.20;43.50;;;;;;5096887;28;20047;-72
2021/04/09 11:17:27;;;;;;;5.68;2.42;;;18.40;41.30;;;;;;5096630;28;20050;-73
2021/04/09 11:19:56;;;;;;;5.00;2.70;;;18.40;41.20;;;;;;5096771;28;20090;-72
2021/04/09 11:22:23;;;;;;;14.25;2.92;;;18.60;43.80;;;;;;5078727;28;20020;-72
2021/04/09 11:25:05;;;;;;;3.53;2.20;;;18.80;41.90;;;;;;5096562;28;20047;-72
2021/04/09 11:27:34;;;;;;;4.97;2.35;;;18.70;39.60;;;;;;5078623;28;20028;-72
2021/04/09 11:30:07;;;;;;;9.82;2.58;;;18.60;42.80;;;;;;5096516;28;20185;-72
2021/04/09 11:32:38;;;;;;;6.65;3.25;;;18.20;41.80;;;;;;5098379;28;20032;-72
2021/04/09 11:35:11;;;;;;;4.22;2.55;;;18.20;40.50;;;;;;5100540;28;20024;-73
2021/04/09 11:37:49;;;;;;;8.15;2.90;;;17.70;42.80;;;;;;5100642;28;20111;-73
2021/04/09 11:40:17;;;;;;;5.78;2.85;;;17.40;42.70;;;;;;5082567;28;20049;-71
2021/04/09 11:42:45;;;;;;;7.75;2.58;;;17.20;42.50;;;;;;5100438;28;20115;-72
2021/04/09 11:45:13;;;;;;;6.60;2.95;;;16.70;43.60;;;;;;5100236;28;20032;-73
2021/04/09 11:47:41;;;;;;;9.40;2.50;;;16.40;42.80;;;;;;5100339;28;20034;-73
2021/04/09 11:50:10;;;;;;;6.45;2.50;;;16.20;47.30;;;;;;5099940;28;20040;-71
2021/04/09 11:52:55;;;;;;;4.20;2.50;;;15.90;46.20;;;;;;5100377;28;20056;-73
2021/04/09 11:55:25;;;;;;;6.03;2.80;;;15.70;48.20;;;;;;5100123;28;20036;-73
2021/04/09 11:57:50;;;;;;;7.10;2.80;;;15.40;46.80;;;;;;5082058;28;20082;-71
2021/04/09 12:00:20;;;;;;;5.93;2.70;;;15.10;46.90;;;;;;5100204;28;20447;-73
2021/04/09 12:02:52;;;;;;;4.07;2.50;;;14.90;47.90;;;;;;5100088;28;20028;-71
2021/04/09 12:05:20;;;;;;;7.22;3.20;;;14.60;47.80;;;;;;5099910;28;20416;-71
2021/04/09 12:07:46;;;;;;;5.05;2.70;;;14.70;48.60;;;;;;5099936;28;20063;-71
2021/04/09 12:10:13;;;;;;;6.40;2.63;;;15.10;48.10;;;;;;5100168;28;20073;-71
2021/04/09 12:12:40;;;;;;;6.40;2.85;;;15.20;48.50;;;;;;5099833;28;20032;-72
2021/04/09 12:15:06;;;;;;;6.47;2.70;;;15.60;46.70;;;;;;5099644;28;20073;-72
2021/04/09 12:17:32;;;;;;;6.38;2.97;;;15.80;47.50;;;;;;5099967;28;20032;-71
2021/04/09 12:19:58;;;;;;;8.88;3.00;;;15.90;46.70;;;;;;5099769;28;20357;-71
2021/04/09 12:22:24;;;;;;;9.25;2.50;;;15.80;46.20;;;;;;5099624;28;20410;-72
2021/04/09 12:24:50;;;;;;;4.82;2.67;;;15.80;46.40;;;;;;5099564;28;20309;-72
2021/04/09 12:27:17;;;;;;;10.60;2.72;;;15.60;47.20;;;;;;5081902;28;20035;-72
2021/04/09 12:29:43;;;;;;;8.98;2.75;;;15.50;46.60;;;;;;5099528;28;20024;-72
2021/04/09 12:32:09;;;;;;;8.88;2.70;;;15.50;49.20;;;;;;5099536;28;20094;-72
2021/04/09 12:34:35;;;;;;;5.13;2.42;;;15.40;47.50;;;;;;5099464;28;20027;-73
2021/04/09 12:37:02;;;;;;;6.97;3.03;;;15.40;48.30;;;;;;5099315;28;20028;-71
2021/04/09 12:39:28;;;;;;;4.30;2.40;;;15.50;45.70;;;;;;5099525;28;20316;-71
2021/04/09 12:41:53;;;;;;;6.00;3.00;;;15.60;46.60;;;;;;5081394;28;20028;-71
2021/04/09 12:44:20;;;;;;;5.32;2.70;;;15.40;47.60;;;;;;5099140;28;20059;-72
2021/04/09 12:46:48;;;;;;;7.45;2.88;;;15.60;47.30;;;;;;5099208;28;20052;-73
2021/04/09 12:49:18;;;;;;;10.25;2.83;;;15.40;47.80;;;;;;5099201;28;20025;-72
2021/04/09 12:51:44;;;;;;;5.57;2.90;;;15.40;48.30;;;;;;5098944;28;20497;-72
2021/04/09 12:54:10;;;;;;;7.38;2.97;;;15.30;46.60;;;;;;5099429;28;20379;-72
2021/04/09 12:56:37;;;;;;;5.80;2.70;;;15.30;48.60;;;;;;5099257;28;20324;-72
2021/04/09 12:59:03;;;;;;;4.55;2.53;;;15.30;46.60;;;;;;5099048;28;20016;-72